Time;durP1;ratioP1;P1;durP2;ratioP2;P2;SDS_P1;SDS_P2;PMS_P1;PMS_P2;Temp;Humidity;BMP_temperature;BMP_pressure;BME280_temperature;BME280_humidity;BME280_pressure;Samples;Min_cycle;Max_cycle;Signal;HPM_P1;HPM_P2
2022/05/28 00:00:34;;;;;;;21.87;20.47;;;;;;;;;;5074937;28;20413;-84
2022/05/28 00:03:01;;;;;;;22.10;20.80;;;;;;;;;;5074749;28;20446;-84
2022/05/28 00:05:29;;;;;;;21.83;20.53;;;;;;;;;;5074815;28;20444;-84
2022/05/28 00:07:56;;;;;;;21.90;20.47;;;;;;;;;;5074737;28;20445;-85
2022/05/28 00:10:23;;;;;;;22.77;21.10;;;;;;;;;;5074605;28;20450;-84
2022/05/28 00:12:53;;;;;;;21.60;20.40;;;;;;;;;;5074292;28;20409;-85
2022/05/28 00:15:20;;;;;;;21.80;20.33;;;;;;;;;;5074531;28;20760;-84
2022/05/28 00:17:48;;;;;;;21.83;20.50;;;;;;;;;;5074513;28;20433;-84
2022/05/28 00:20:15;;;;;;;22.47;20.77;;;;;;;;;;5073417;28;20536;-84
2022/05/28 00:22:44;;;;;;;21.20;19.90;;;;;;;;;;5074342;28;20442;-85
2022/05/28 00:25:12;;;;;;;22.17;20.40;;;;;;;;;;5074234;28;20878;-84
2022/05/28 00:27:40;;;;;;;21.87;20.23;;;;;;;;;;5074339;28;20413;-85
2022/05/28 00:30:11;;;;;;;21.80;20.30;;;;;;;;;;5074147;28;20830;-85
2022/05/28 00:32:40;;;;;;;21.13;19.77;;;;;;;;;;5074024;28;20409;-85
2022/05/28 00:35:09;;;;;;;21.63;20.23;;;;;;;;;;5074228;28;20934;-84
2022/05/28 00:37:36;;;;;;;21.33;20.03;;;;;;;;;;5073604;28;20469;-85
2022/05/28 00:40:04;;;;;;;22.67;20.87;;;;;;;;;;5073622;28;20468;-84
2022/05/28 00:42:32;;;;;;;22.60;20.77;;;;;;;;;;5074138;28;20420;-84
2022/05/28 00:44:59;;;;;;;21.23;20.00;;;;;;;;;;5072991;28;20436;-85
2022/05/28 00:47:29;;;;;;;21.97;20.67;;;;;;;;;;5073678;28;20771;-85
2022/05/28 00:49:56;;;;;;;22.30;20.90;;;;;;;;;;5073949;28;20425;-84
2022/05/28 00:52:25;;;;;;;22.23;20.73;;;;;;;;;;5073709;28;20446;-84
2022/05/28 00:54:54;;;;;;;22.00;20.70;;;;;;;;;;5073857;28;20421;-85
2022/05/28 00:57:23;;;;;;;22.37;20.73;;;;;;;;;;5073877;28;21137;-85
2022/05/28 00:59:51;;;;;;;21.70;20.40;;;;;;;;;;5073449;28;20482;-85
2022/05/28 01:02:21;;;;;;;22.33;20.80;;;;;;;;;;5072594;28;20423;-84
2022/05/28 01:04:55;;;;;;;22.00;20.37;;;;;;;;;;5073349;28;20936;-85
2022/05/28 01:07:29;;;;;;;23.10;21.00;;;;;;;;;;5073763;28;20464;-83
2022/05/28 01:09:58;;;;;;;20.00;18.80;;;;;;;;;;5073687;28;20427;-85
2022/05/28 01:12:32;;;;;;;21.90;20.60;;;;;;;;;;5072403;28;20446;-85
2022/05/28 01:15:02;;;;;;;21.63;20.20;;;;;;;;;;5073352;28;20439;-84
2022/05/28 01:17:34;;;;;;;21.00;19.60;;;;;;;;;;5073401;28;20812;-85
2022/05/28 01:20:06;;;;;;;21.00;19.90;;;;;;;;;;5073316;28;20460;-85
2022/05/28 01:22:42;;;;;;;21.77;20.17;;;;;;;;;;5074154;28;20799;-85
2022/05/28 01:25:13;;;;;;;21.80;20.03;;;;;;;;;;5073409;28;20449;-85
2022/05/28 01:27:44;;;;;;;22.00;20.23;;;;;;;;;;5073489;28;20543;-84
2022/05/28 01:30:14;;;;;;;22.80;21.30;;;;;;;;;;5073322;28;20932;-85
2022/05/28 01:32:42;;;;;;;20.43;19.33;;;;;;;;;;5073130;28;20442;-85
2022/05/28 01:35:16;;;;;;;21.70;20.20;;;;;;;;;;5073180;28;20424;-85
2022/05/28 01:37:44;;;;;;;21.83;20.17;;;;;;;;;;5073101;28;20414;-84
2022/05/28 01:40:13;;;;;;;23.10;20.83;;;;;;;;;;5073243;28;20461;-84
2022/05/28 01:42:44;;;;;;;22.07;20.60;;;;;;;;;;5073574;28;20880;-84
2022/05/28 01:45:14;;;;;;;21.70;20.30;;;;;;;;;;5073004;28;20435;-85
2022/05/28 01:47:42;;;;;;;21.77;20.17;;;;;;;;;;5073039;28;20412;-84
2022/05/28 01:50:10;;;;;;;22.10;20.20;;;;;;;;;;5072858;28;20433;-84
2022/05/28 01:52:39;;;;;;;22.57;20.60;;;;;;;;;;5073130;28;20409;-85
2022/05/28 01:55:07;;;;;;;22.17;20.27;;;;;;;;;;5073084;28;20438;-84
2022/05/28 01:57:35;;;;;;;20.77;19.03;;;;;;;;;;5073084;28;20451;-84
2022/05/28 02:00:04;;;;;;;21.60;19.90;;;;;;;;;;5073130;28;20505;-85
2022/05/28 02:02:32;;;;;;;21.30;19.70;;;;;;;;;;5073411;28;20421;-84
2022/05/28 02:05:00;;;;;;;21.20;19.80;;;;;;;;;;5073011;28;20405;-84
2022/05/28 02:07:27;;;;;;;20.73;19.63;;;;;;;;;;5072937;28;20910;-84
2022/05/28 02:09:56;;;;;;;22.40;20.57;;;;;;;;;;5073362;28;20763;-84
2022/05/28 02:12:26;;;;;;;21.57;19.80;;;;;;;;;;5073282;28;20428;-84
2022/05/28 02:14:59;;;;;;;21.00;19.70;;;;;;;;;;5072711;28;20421;-84
2022/05/28 02:17:33;;;;;;;20.57;19.47;;;;;;;;;;5072709;28;20512;-85
2022/05/28 02:20:06;;;;;;;21.27;19.87;;;;;;;;;;5073084;28;20466;-84
2022/05/28 02:22:36;;;;;;;21.80;20.27;;;;;;;;;;5072705;28;20482;-83
2022/05/28 02:25:12;;;;;;;20.93;19.70;;;;;;;;;;5072478;28;20442;-83
2022/05/28 02:27:41;;;;;;;22.30;20.67;;;;;;;;;;5073108;28;20438;-85
2022/05/28 02:30:09;;;;;;;21.27;19.70;;;;;;;;;;5072760;28;20944;-85
2022/05/28 02:32:38;;;;;;;21.37;19.87;;;;;;;;;;5072885;28;20797;-84
2022/05/28 02:35:06;;;;;;;21.40;20.10;;;;;;;;;;5072901;28;20891;-84
2022/05/28 02:37:33;;;;;;;20.90;19.40;;;;;;;;;;5072547;28;20481;-84
2022/05/28 02:40:01;;;;;;;21.73;19.93;;;;;;;;;;5072496;28;20464;-85
2022/05/28 02:42:28;;;;;;;20.97;19.77;;;;;;;;;;5071389;28;20437;-84
2022/05/28 02:44:55;;;;;;;21.30;19.80;;;;;;;;;;5075850;28;20408;-84
2022/05/28 02:47:23;;;;;;;21.90;20.00;;;;;;;;;;5076534;28;20506;-84
2022/05/28 02:49:53;;;;;;;22.13;20.33;;;;;;;;;;5076285;28;20446;-84
2022/05/28 02:52:21;;;;;;;20.83;19.47;;;;;;;;;;5076281;28;20488;-83
2022/05/28 02:54:48;;;;;;;20.93;19.63;;;;;;;;;;5076028;28;20475;-84
2022/05/28 02:57:15;;;;;;;20.77;19.67;;;;;;;;;;5075945;28;20453;-85
2022/05/28 02:59:43;;;;;;;21.63;19.97;;;;;;;;;;5076270;28;20482;-84
2022/05/28 03:02:10;;;;;;;20.90;19.47;;;;;;;;;;5075794;28;20443;-84
2022/05/28 03:04:37;;;;;;;20.80;19.47;;;;;;;;;;5075833;28;20434;-84
2022/05/28 03:07:07;;;;;;;20.73;19.17;;;;;;;;;;5075960;28;20846;-84
2022/05/28 03:09:35;;;;;;;22.07;20.20;;;;;;;;;;5075981;28;20797;-85
2022/05/28 03:12:02;;;;;;;21.10;19.33;;;;;;;;;;5075927;28;20443;-85
2022/05/28 03:14:30;;;;;;;21.30;20.00;;;;;;;;;;5074697;28;20462;-84
2022/05/28 03:16:57;;;;;;;20.33;19.00;;;;;;;;;;5075801;28;20458;-84
2022/05/28 03:19:24;;;;;;;22.27;20.60;;;;;;;;;;5075634;28;20447;-84
2022/05/28 03:21:52;;;;;;;20.70;19.30;;;;;;;;;;5075600;28;20438;-84
2022/05/28 03:24:20;;;;;;;20.97;19.63;;;;;;;;;;5075580;28;20766;-84
2022/05/28 03:26:48;;;;;;;20.47;19.20;;;;;;;;;;5075554;28;20453;-84
2022/05/28 03:29:15;;;;;;;20.87;19.40;;;;;;;;;;5075387;28;20421;-84
2022/05/28 03:31:42;;;;;;;20.13;19.03;;;;;;;;;;5075566;28;20998;-84
2022/05/28 03:34:10;;;;;;;20.63;19.27;;;;;;;;;;5075326;28;20424;-84
2022/05/28 03:36:37;;;;;;;20.50;19.10;;;;;;;;;;5074913;28;20456;-83
2022/05/28 03:39:04;;;;;;;21.17;19.50;;;;;;;;;;5075109;28;20445;-84
2022/05/28 03:41:33;;;;;;;20.57;19.10;;;;;;;;;;5074943;28;20461;-84
2022/05/28 03:44:01;;;;;;;20.70;19.17;;;;;;;;;;5073457;28;20452;-83
2022/05/28 03:46:29;;;;;;;19.93;18.50;;;;;;;;;;5074898;28;20454;-83
2022/05/28 03:48:58;;;;;;;20.37;18.90;;;;;;;;;;5074623;28;20441;-83
2022/05/28 03:51:26;;;;;;;20.10;18.80;;;;;;;;;;5074639;28;20476;-82
2022/05/28 03:53:53;;;;;;;20.10;18.60;;;;;;;;;;5074739;28;20413;-83
2022/05/28 03:56:22;;;;;;;20.93;19.33;;;;;;;;;;5073131;28;20923;-82
2022/05/28 03:58:50;;;;;;;19.60;18.40;;;;;;;;;;5074912;28;20441;-82
2022/05/28 04:01:18;;;;;;;19.57;18.33;;;;;;;;;;5074060;28;20896;-83
2022/05/28 04:03:45;;;;;;;20.53;19.03;;;;;;;;;;5074307;28;20432;-83
2022/05/28 04:06:13;;;;;;;20.07;18.43;;;;;;;;;;5074215;28;20452;-83
2022/05/28 04:08:40;;;;;;;20.47;18.97;;;;;;;;;;5074308;28;20406;-83
2022/05/28 04:11:08;;;;;;;20.57;18.97;;;;;;;;;;5074238;28;20512;-83
2022/05/28 04:13:35;;;;;;;20.30;18.93;;;;;;;;;;5074233;28;20473;-83
2022/05/28 04:16:04;;;;;;;21.80;20.20;;;;;;;;;;5074073;28;20438;-83
2022/05/28 04:18:32;;;;;;;19.80;18.60;;;;;;;;;;5074259;28;20469;-83
2022/05/28 04:20:59;;;;;;;22.57;20.93;;;;;;;;;;5073777;28;20464;-82
2022/05/28 04:23:27;;;;;;;20.30;18.80;;;;;;;;;;5074240;28;20440;-83
2022/05/28 04:25:54;;;;;;;21.07;19.67;;;;;;;;;;5073962;28;20470;-83
2022/05/28 04:28:21;;;;;;;20.30;18.70;;;;;;;;;;5073789;28;20457;-82
2022/05/28 04:30:48;;;;;;;20.37;19.10;;;;;;;;;;5073879;28;20421;-81
2022/05/28 04:33:17;;;;;;;22.50;21.00;;;;;;;;;;5073599;28;20909;-82
2022/05/28 04:35:45;;;;;;;20.80;19.30;;;;;;;;;;5073716;28;20457;-83
2022/05/28 04:38:12;;;;;;;21.17;20.07;;;;;;;;;;5073711;28;20894;-83
2022/05/28 04:40:39;;;;;;;20.70;19.40;;;;;;;;;;5073778;28;20489;-82
2022/05/28 04:43:07;;;;;;;20.10;18.90;;;;;;;;;;5073590;28;20416;-83
2022/05/28 04:45:34;;;;;;;20.10;18.90;;;;;;;;;;5073343;28;20417;-83
2022/05/28 04:48:01;;;;;;;20.57;19.40;;;;;;;;;;5073666;28;20905;-82
2022/05/28 04:50:31;;;;;;;20.03;18.63;;;;;;;;;;5073620;28;20781;-83
2022/05/28 04:52:58;;;;;;;21.27;19.90;;;;;;;;;;5073733;28;20801;-83
2022/05/28 04:55:26;;;;;;;19.63;18.27;;;;;;;;;;5073392;28;20421;-83
2022/05/28 04:57:54;;;;;;;21.57;19.80;;;;;;;;;;5073646;28;20431;-83
2022/05/28 05:00:22;;;;;;;20.53;19.43;;;;;;;;;;5073617;28;20487;-82
2022/05/28 05:02:49;;;;;;;20.70;19.20;;;;;;;;;;5073072;28;20506;-82
2022/05/28 05:05:17;;;;;;;20.10;18.80;;;;;;;;;;5073231;28;20448;-82
2022/05/28 05:07:46;;;;;;;20.73;19.53;;;;;;;;;;5072929;28;20443;-82
2022/05/28 05:10:13;;;;;;;21.67;19.73;;;;;;;;;;5073479;28;20442;-83
2022/05/28 05:12:41;;;;;;;19.40;18.17;;;;;;;;;;5073289;28;20438;-83
2022/05/28 05:15:09;;;;;;;19.80;18.40;;;;;;;;;;5073043;28;20476;-83
2022/05/28 05:17:36;;;;;;;19.53;18.30;;;;;;;;;;5073402;28;20413;-83
2022/05/28 05:20:04;;;;;;;19.97;18.57;;;;;;;;;;5071888;28;20914;-83
2022/05/28 05:22:31;;;;;;;20.77;19.17;;;;;;;;;;5072972;28;20439;-83
2022/05/28 05:25:00;;;;;;;19.47;18.27;;;;;;;;;;5075260;28;20473;-81
2022/05/28 05:27:28;;;;;;;19.70;18.50;;;;;;;;;;5085027;28;20448;-80
2022/05/28 05:29:57;;;;;;;19.60;18.40;;;;;;;;;;5094833;28;20598;-91
2022/05/28 05:32:25;;;;;;;19.30;18.10;;;;;;;;;;5094386;28;20503;-89
2022/05/28 05:34:53;;;;;;;19.50;18.40;;;;;;;;;;5094195;28;20490;-89
2022/05/28 05:37:21;;;;;;;19.77;18.37;;;;;;;;;;5093921;28;20485;-89
2022/05/28 05:39:48;;;;;;;19.77;18.50;;;;;;;;;;5094534;28;20487;-89
2022/05/28 05:42:17;;;;;;;20.93;19.50;;;;;;;;;;5093854;28;20460;-89
2022/05/28 05:44:44;;;;;;;19.63;18.43;;;;;;;;;;5094182;28;20428;-89
2022/05/28 05:47:11;;;;;;;19.80;18.30;;;;;;;;;;5094307;28;20878;-90
2022/05/28 05:49:39;;;;;;;21.00;19.60;;;;;;;;;;5094126;28;20457;-88
2022/05/28 05:52:07;;;;;;;21.13;19.43;;;;;;;;;;5094406;28;20419;-92
2022/05/28 05:54:34;;;;;;;20.30;19.10;;;;;;;;;;5094297;28;20434;-92
2022/05/28 05:57:02;;;;;;;19.50;18.40;;;;;;;;;;5094514;28;20431;-92
2022/05/28 05:59:31;;;;;;;20.77;19.17;;;;;;;;;;5094155;28;20890;-92
2022/05/28 06:01:58;;;;;;;21.20;19.77;;;;;;;;;;5093961;28;20479;-93
2022/05/28 06:04:25;;;;;;;19.27;18.17;;;;;;;;;;5093909;28;20449;-93
2022/05/28 06:06:53;;;;;;;21.70;20.30;;;;;;;;;;5092793;28;20913;-93
2022/05/28 06:09:20;;;;;;;20.40;19.10;;;;;;;;;;5094126;28;20457;-93
2022/05/28 06:11:48;;;;;;;20.60;19.17;;;;;;;;;;5094171;28;20866;-94
2022/05/28 06:14:15;;;;;;;20.77;19.27;;;;;;;;;;5093816;28;20944;-94
2022/05/28 06:16:44;;;;;;;21.10;19.60;;;;;;;;;;5094227;28;20803;-93
2022/05/28 06:19:12;;;;;;;19.00;17.90;;;;;;;;;;5096568;28;20774;-93
2022/05/28 06:21:39;;;;;;;19.27;18.07;;;;;;;;;;5096507;28;20485;-89
2022/05/28 06:24:07;;;;;;;19.43;18.03;;;;;;;;;;5097835;28;20430;-90
2022/05/28 06:26:34;;;;;;;20.20;18.70;;;;;;;;;;5097887;28;20949;-95
2022/05/28 06:29:01;;;;;;;20.40;19.00;;;;;;;;;;5097837;28;20770;-95
2022/05/28 06:31:29;;;;;;;20.40;19.30;;;;;;;;;;5097878;28;20440;-93
2022/05/28 06:33:58;;;;;;;21.57;19.80;;;;;;;;;;5097077;28;20412;-92
2022/05/28 06:36:25;;;;;;;20.90;19.50;;;;;;;;;;5098186;28;20983;-94
2022/05/28 06:38:52;;;;;;;20.90;19.47;;;;;;;;;;5096737;28;20399;-94
2022/05/28 06:41:20;;;;;;;19.50;18.40;;;;;;;;;;5097664;28;20560;-94
2022/05/28 06:43:47;;;;;;;19.70;18.40;;;;;;;;;;5096321;28;20924;-93
2022/05/28 06:46:15;;;;;;;20.70;19.30;;;;;;;;;;5097383;28;20404;-96
2022/05/28 06:48:42;;;;;;;21.97;20.10;;;;;;;;;;5097519;28;20444;-95
2022/05/28 06:51:11;;;;;;;20.33;19.13;;;;;;;;;;5097545;28;20452;-94
2022/05/28 06:53:40;;;;;;;20.37;19.07;;;;;;;;;;5097197;28;20410;-94
2022/05/28 06:56:09;;;;;;;19.97;18.77;;;;;;;;;;5097096;28;20451;-96
2022/05/28 06:58:36;;;;;;;20.77;19.47;;;;;;;;;;5097384;28;20445;-95
2022/05/28 07:01:06;;;;;;;22.53;20.83;;;;;;;;;;5096069;28;20556;-95
2022/05/28 07:03:34;;;;;;;20.70;19.40;;;;;;;;;;5096712;28;20434;-90
2022/05/28 07:06:02;;;;;;;20.10;18.87;;;;;;;;;;5096279;28;20448;-90
2022/05/28 07:08:31;;;;;;;20.50;19.30;;;;;;;;;;5097337;28;20973;-94
2022/05/28 07:10:59;;;;;;;20.30;19.10;;;;;;;;;;5085245;28;20933;-86
2022/05/28 07:13:28;;;;;;;20.90;19.70;;;;;;;;;;5076209;28;20417;-85
2022/05/28 07:15:55;;;;;;;21.10;20.00;;;;;;;;;;5076202;28;20418;-87
2022/05/28 07:18:22;;;;;;;21.40;19.97;;;;;;;;;;5075390;28;20457;-85
2022/05/28 07:20:50;;;;;;;22.37;20.60;;;;;;;;;;5075901;28;20464;-84
2022/05/28 07:23:18;;;;;;;21.47;19.87;;;;;;;;;;5075940;28;20425;-84
2022/05/28 07:25:47;;;;;;;20.80;19.50;;;;;;;;;;5075602;28;20452;-86
2022/05/28 07:28:28;;;;;;;20.53;19.23;;;;;;;;;;5075860;28;20434;-86
2022/05/28 07:30:56;;;;;;;20.60;19.30;;;;;;;;;;5075891;28;20548;-84
2022/05/28 07:33:24;;;;;;;20.40;19.10;;;;;;;;;;5075963;28;20462;-87
2022/05/28 07:35:52;;;;;;;21.70;20.10;;;;;;;;;;5074543;28;20485;-87
2022/05/28 07:38:19;;;;;;;20.17;19.07;;;;;;;;;;5075843;28;20439;-87
2022/05/28 07:40:48;;;;;;;22.23;20.07;;;;;;;;;;5075737;28;20775;-83
2022/05/28 07:43:15;;;;;;;21.73;20.30;;;;;;;;;;5075156;28;20990;-83
2022/05/28 07:45:44;;;;;;;22.57;20.70;;;;;;;;;;5075034;28;20890;-83
2022/05/28 07:48:12;;;;;;;21.07;19.77;;;;;;;;;;5074966;28;20405;-83
2022/05/28 07:50:39;;;;;;;22.47;20.50;;;;;;;;;;5075124;28;20527;-83
2022/05/28 07:53:07;;;;;;;21.50;19.97;;;;;;;;;;5075352;28;20443;-85
2022/05/28 07:55:34;;;;;;;22.07;20.57;;;;;;;;;;5074860;28;20410;-85
2022/05/28 07:58:07;;;;;;;22.00;20.60;;;;;;;;;;5075182;28;20397;-85
2022/05/28 08:00:34;;;;;;;22.27;20.90;;;;;;;;;;5074953;28;20494;-90
2022/05/28 08:03:02;;;;;;;22.03;20.63;;;;;;;;;;5075625;28;20938;-85
2022/05/28 08:05:29;;;;;;;21.00;19.60;;;;;;;;;;5074467;28;20429;-87
2022/05/28 08:07:57;;;;;;;21.07;19.60;;;;;;;;;;5075770;28;20434;-85
2022/05/28 08:10:24;;;;;;;20.30;19.17;;;;;;;;;;5074445;28;20442;-84
2022/05/28 08:12:51;;;;;;;20.63;19.40;;;;;;;;;;5074664;28;20424;-88
2022/05/28 08:15:20;;;;;;;20.80;19.40;;;;;;;;;;5075585;28;20432;-86
2022/05/28 08:17:48;;;;;;;22.07;20.20;;;;;;;;;;5074469;28;20769;-86
2022/05/28 08:20:15;;;;;;;20.63;18.87;;;;;;;;;;5074188;28;20425;-86
2022/05/28 08:25:27;;;;;;;21.47;19.47;;;;;;;;;;5074619;28;20445;-86
2022/05/28 08:27:55;;;;;;;22.00;19.93;;;;;;;;;;5074978;28;20420;-84
2022/05/28 08:30:24;;;;;;;20.60;19.30;;;;;;;;;;5088066;28;20449;-86
2022/05/28 08:32:52;;;;;;;21.40;19.87;;;;;;;;;;5096340;28;20754;-88
2022/05/28 08:37:51;;;;;;;21.07;19.77;;;;;;;;;;5206229;22;20902;-96
2022/05/28 08:40:19;;;;;;;21.43;19.87;;;;;;;;;;5094799;28;20438;-88
2022/05/28 08:42:46;;;;;;;19.90;18.60;;;;;;;;;;5094282;28;20454;-86
2022/05/28 08:45:15;;;;;;;20.13;18.70;;;;;;;;;;5094701;28;20461;-90
2022/05/28 08:47:44;;;;;;;21.30;19.70;;;;;;;;;;5094665;28;20405;-92
2022/05/28 08:50:12;;;;;;;20.90;19.50;;;;;;;;;;5094163;28;20404;-90
2022/05/28 08:52:42;;;;;;;21.03;19.60;;;;;;;;;;5094547;28;20449;-89
2022/05/28 08:55:13;;;;;;;21.23;19.60;;;;;;;;;;5076357;28;20935;-85
2022/05/28 08:57:53;;;;;;;21.13;19.60;;;;;;;;;;5094328;28;20466;-87
2022/05/28 09:00:25;;;;;;;20.30;19.20;;;;;;;;;;5093886;28;20942;-89
2022/05/28 09:02:55;;;;;;;20.83;19.43;;;;;;;;;;5094541;28;20456;-91
2022/05/28 09:05:25;;;;;;;20.50;19.20;;;;;;;;;;5076639;28;20565;-93
2022/05/28 09:07:53;;;;;;;21.10;19.90;;;;;;;;;;5095247;28;20438;-86
2022/05/28 09:10:20;;;;;;;20.63;19.37;;;;;;;;;;5076703;28;20441;-86
2022/05/28 09:12:52;;;;;;;21.50;20.07;;;;;;;;;;5094609;28;20448;-87
2022/05/28 09:15:19;;;;;;;21.70;20.20;;;;;;;;;;5093556;28;20516;-84
2022/05/28 09:17:48;;;;;;;21.43;20.03;;;;;;;;;;5093986;28;20452;-87
2022/05/28 09:20:20;;;;;;;23.73;21.90;;;;;;;;;;5094446;28;20950;-88
2022/05/28 09:22:47;;;;;;;22.30;20.70;;;;;;;;;;5094013;28;20462;-88
2022/05/28 09:25:16;;;;;;;22.40;20.80;;;;;;;;;;5094199;28;20967;-84
2022/05/28 09:27:48;;;;;;;21.93;20.47;;;;;;;;;;5094801;28;20409;-89
2022/05/28 09:30:19;;;;;;;21.90;20.27;;;;;;;;;;5095609;28;20424;-89
2022/05/28 09:32:54;;;;;;;22.50;21.30;;;;;;;;;;5095392;28;20432;-94
2022/05/28 09:35:28;;;;;;;21.20;19.70;;;;;;;;;;5078128;28;20455;-89
2022/05/28 09:37:58;;;;;;;22.10;20.80;;;;;;;;;;5094114;28;20483;-92
2022/05/28 09:40:31;;;;;;;22.47;20.87;;;;;;;;;;5093932;28;20456;-87
2022/05/28 09:43:09;;;;;;;22.83;21.23;;;;;;;;;;5093980;28;20459;-87
2022/05/28 09:45:41;;;;;;;21.87;20.13;;;;;;;;;;5094243;28;20438;-87
2022/05/28 09:48:17;;;;;;;22.30;20.73;;;;;;;;;;5093783;28;20416;-87
2022/05/28 09:50:46;;;;;;;22.63;21.43;;;;;;;;;;5093860;28;20438;-88
2022/05/28 09:56:01;;;;;;;22.40;21.00;;;;;;;;;;5098293;28;20515;-89
2022/05/28 09:58:30;;;;;;;21.37;20.07;;;;;;;;;;5098343;28;20449;-89
2022/05/28 10:01:07;;;;;;;20.83;19.43;;;;;;;;;;5098272;28;20451;-89
2022/05/28 10:06:22;;;;;;;21.60;20.20;;;;;;;;;;5097972;28;20451;-89
2022/05/28 10:08:49;;;;;;;22.80;20.87;;;;;;;;;;5097900;28;20438;-87
2022/05/28 10:11:19;;;;;;;21.50;20.20;;;;;;;;;;5098037;28;20755;-89
2022/05/28 10:13:47;;;;;;;22.90;21.40;;;;;;;;;;5097761;28;20448;-88
2022/05/28 10:16:16;;;;;;;22.90;21.27;;;;;;;;;;5098052;28;20787;-88
2022/05/28 10:18:47;;;;;;;21.40;20.13;;;;;;;;;;5079459;28;20473;-88
2022/05/28 10:21:17;;;;;;;21.40;20.20;;;;;;;;;;5079629;28;20471;-88
2022/05/28 10:23:51;;;;;;;22.10;20.77;;;;;;;;;;5098260;28;20462;-88
2022/05/28 10:26:20;;;;;;;21.43;20.23;;;;;;;;;;5097942;28;20444;-89
2022/05/28 10:28:49;;;;;;;21.67;20.57;;;;;;;;;;5097654;28;20774;-86
2022/05/28 10:31:17;;;;;;;20.90;19.80;;;;;;;;;;5097769;28;20423;-88
2022/05/28 10:33:45;;;;;;;21.13;19.83;;;;;;;;;;5079185;28;20430;-88
2022/05/28 10:36:17;;;;;;;21.07;19.87;;;;;;;;;;5097368;28;20484;-88
2022/05/28 10:38:46;;;;;;;21.63;20.33;;;;;;;;;;5097004;28;20459;-86
2022/05/28 10:41:18;;;;;;;21.70;20.17;;;;;;;;;;5096919;28;20404;-86
2022/05/28 10:43:46;;;;;;;21.40;20.00;;;;;;;;;;5097434;28;20477;-86
2022/05/28 10:46:17;;;;;;;21.30;20.00;;;;;;;;;;5096955;28;20970;-86
2022/05/28 10:48:51;;;;;;;20.73;19.30;;;;;;;;;;5097286;28;20903;-87
2022/05/28 10:51:22;;;;;;;20.33;19.13;;;;;;;;;;5097200;28;20434;-87
2022/05/28 10:54:13;;;;;;;21.30;20.00;;;;;;;;;;5096954;28;20918;-86
2022/05/28 10:56:48;;;;;;;22.37;21.00;;;;;;;;;;5081948;28;20453;-87
2022/05/28 10:59:24;;;;;;;22.23;20.73;;;;;;;;;;5096694;28;20443;-87
2022/05/28 11:01:55;;;;;;;21.60;20.00;;;;;;;;;;5096945;28;20407;-86
2022/05/28 11:04:39;;;;;;;21.37;20.17;;;;;;;;;;5095772;28;20452;-87
2022/05/28 11:07:25;;;;;;;21.57;19.77;;;;;;;;;;5096949;28;20446;-87
2022/05/28 11:09:59;;;;;;;21.90;20.70;;;;;;;;;;5096286;28;20468;-87
2022/05/28 11:12:36;;;;;;;21.30;19.87;;;;;;;;;;5096687;28;20411;-87
2022/05/28 11:15:18;;;;;;;21.10;19.90;;;;;;;;;;5079221;28;20442;-86
2022/05/28 11:17:54;;;;;;;21.13;19.83;;;;;;;;;;5093872;28;20457;-86
2022/05/28 11:20:28;;;;;;;22.07;20.77;;;;;;;;;;5096951;28;20443;-87
2022/05/28 11:23:08;;;;;;;23.53;21.77;;;;;;;;;;5096333;28;20459;-87
2022/05/28 11:25:40;;;;;;;20.30;19.03;;;;;;;;;;5096116;28;20497;-87
2022/05/28 11:28:20;;;;;;;21.00;19.77;;;;;;;;;;5078365;28;20829;-86
2022/05/28 11:30:49;;;;;;;22.17;20.80;;;;;;;;;;5080098;28;20524;-86
2022/05/28 11:33:18;;;;;;;21.67;20.37;;;;;;;;;;5075656;28;20931;-86
2022/05/28 11:35:48;;;;;;;21.50;20.10;;;;;;;;;;5075450;28;20432;-86
2022/05/28 11:38:18;;;;;;;22.13;20.73;;;;;;;;;;5076005;28;20421;-86
2022/05/28 11:40:55;;;;;;;21.07;19.80;;;;;;;;;;5075824;28;20431;-85
2022/05/28 11:43:26;;;;;;;20.80;19.63;;;;;;;;;;5075652;28;20882;-85
2022/05/28 11:45:57;;;;;;;21.50;20.30;;;;;;;;;;5075731;28;20805;-87
2022/05/28 11:48:27;;;;;;;21.17;20.07;;;;;;;;;;5075613;28;20425;-87
2022/05/28 11:53:44;;;;;;;22.20;20.90;;;;;;;;;;5060435;28;20474;-86
2022/05/28 11:56:15;;;;;;;20.87;19.53;;;;;;;;;;5075281;28;20421;-86
2022/05/28 11:58:46;;;;;;;22.73;21.20;;;;;;;;;;5075027;28;20451;-86
2022/05/28 12:01:15;;;;;;;21.80;20.60;;;;;;;;;;5075126;28;20425;-89
2022/05/28 12:03:44;;;;;;;22.83;21.43;;;;;;;;;;5091801;28;20488;-91
2022/05/28 12:06:19;;;;;;;22.97;21.27;;;;;;;;;;5095464;28;20473;-89
2022/05/28 12:08:47;;;;;;;20.97;19.67;;;;;;;;;;5095776;28;20457;-90
2022/05/28 12:11:27;;;;;;;22.03;20.73;;;;;;;;;;5095792;28;20427;-90
2022/05/28 12:13:56;;;;;;;21.50;20.20;;;;;;;;;;5095582;28;20460;-90
2022/05/28 12:16:30;;;;;;;21.27;19.97;;;;;;;;;;5094602;28;20428;-89
2022/05/28 12:18:59;;;;;;;23.27;21.30;;;;;;;;;;5077440;28;20478;-90
2022/05/28 12:21:27;;;;;;;20.60;19.40;;;;;;;;;;5095683;28;20415;-90
2022/05/28 12:24:05;;;;;;;22.47;20.97;;;;;;;;;;5095276;28;20471;-90
2022/05/28 12:29:38;;;;;;;20.60;19.50;;;;;;;;;;5095203;28;20465;-90
2022/05/28 12:32:12;;;;;;;21.90;20.60;;;;;;;;;;5095710;28;20429;-90
2022/05/28 12:34:40;;;;;;;22.30;20.87;;;;;;;;;;5095152;28;20464;-87
2022/05/28 12:37:15;;;;;;;22.10;20.80;;;;;;;;;;5073508;28;21016;-88
2022/05/28 12:39:46;;;;;;;22.47;21.00;;;;;;;;;;5074993;28;20412;-88
2022/05/28 12:42:21;;;;;;;21.67;20.23;;;;;;;;;;5074954;28;20427;-88
2022/05/28 12:44:53;;;;;;;22.63;21.03;;;;;;;;;;5073553;28;20424;-87
2022/05/28 12:47:27;;;;;;;21.73;20.33;;;;;;;;;;5074893;28;20402;-91
2022/05/28 12:49:59;;;;;;;21.97;20.57;;;;;;;;;;5074796;28;20925;-93
2022/05/28 12:52:29;;;;;;;22.33;21.03;;;;;;;;;;5074014;28;20425;-92
2022/05/28 12:55:02;;;;;;;22.57;21.20;;;;;;;;;;5074730;28;20431;-89
2022/05/28 12:57:31;;;;;;;22.73;21.23;;;;;;;;;;5074340;28;20420;-84
2022/05/28 13:00:02;;;;;;;23.20;21.50;;;;;;;;;;5059827;28;20534;-88
2022/05/28 13:02:32;;;;;;;21.60;20.20;;;;;;;;;;5054722;28;20459;-88
2022/05/28 13:05:04;;;;;;;22.63;21.03;;;;;;;;;;5054535;28;20440;-86
2022/05/28 13:07:35;;;;;;;23.00;21.60;;;;;;;;;;5054050;28;20459;-82
2022/05/28 13:10:13;;;;;;;22.83;21.43;;;;;;;;;;5053579;28;20911;-90
2022/05/28 13:12:47;;;;;;;21.40;20.10;;;;;;;;;;5052909;28;20451;-85
2022/05/28 13:15:32;;;;;;;22.60;21.07;;;;;;;;;;5053760;28;20456;-86
2022/05/28 13:18:17;;;;;;;22.77;21.47;;;;;;;;;;5054151;28;20436;-88
2022/05/28 13:20:54;;;;;;;23.90;22.40;;;;;;;;;;5014735;28;20575;-88
2022/05/28 13:23:28;;;;;;;21.73;20.50;;;;;;;;;;5054106;28;20508;-88
2022/05/28 13:26:10;;;;;;;22.60;21.20;;;;;;;;;;5068016;28;20477;-89
2022/05/28 13:28:53;;;;;;;23.53;22.13;;;;;;;;;;5057455;28;20450;-88
2022/05/28 13:31:22;;;;;;;22.60;21.13;;;;;;;;;;5073963;28;20447;-87
2022/05/28 13:33:49;;;;;;;22.47;21.17;;;;;;;;;;5074099;28;20466;-87
2022/05/28 13:36:18;;;;;;;23.07;21.57;;;;;;;;;;5072915;28;20478;-88
2022/05/28 13:38:48;;;;;;;23.43;21.90;;;;;;;;;;5073879;28;20910;-86
2022/05/28 13:41:17;;;;;;;22.37;20.90;;;;;;;;;;5074038;28;20408;-87
2022/05/28 13:43:47;;;;;;;22.50;21.10;;;;;;;;;;5073924;28;20457;-87
2022/05/28 13:46:15;;;;;;;23.47;21.97;;;;;;;;;;5073718;28;20492;-84
2022/05/28 13:48:44;;;;;;;23.50;22.00;;;;;;;;;;5073978;28;20465;-85
2022/05/28 13:51:12;;;;;;;23.13;21.73;;;;;;;;;;5072480;28;20420;-86
2022/05/28 13:53:42;;;;;;;22.97;21.47;;;;;;;;;;5073570;28;20405;-86
2022/05/28 13:56:10;;;;;;;24.33;22.50;;;;;;;;;;5073490;28;20905;-87
2022/05/28 13:58:39;;;;;;;23.70;22.07;;;;;;;;;;5074023;28;20405;-86
2022/05/28 14:01:07;;;;;;;23.40;21.83;;;;;;;;;;5073379;28;20914;-86
2022/05/28 14:03:37;;;;;;;23.60;22.10;;;;;;;;;;5073008;28;20957;-84
2022/05/28 14:06:06;;;;;;;23.17;21.47;;;;;;;;;;5073566;28;20784;-84
2022/05/28 14:08:34;;;;;;;23.10;21.50;;;;;;;;;;5073571;28;20781;-85
2022/05/28 14:11:05;;;;;;;22.30;20.80;;;;;;;;;;5073516;28;20420;-85
2022/05/28 14:13:34;;;;;;;22.40;21.00;;;;;;;;;;5073007;28;20437;-85
2022/05/28 14:16:01;;;;;;;23.53;21.90;;;;;;;;;;5072164;28;20440;-85
2022/05/28 14:18:30;;;;;;;22.60;21.00;;;;;;;;;;5073188;28;20417;-85
2022/05/28 14:21:05;;;;;;;22.53;21.23;;;;;;;;;;5072861;28;20814;-85
2022/05/28 14:23:33;;;;;;;21.80;20.30;;;;;;;;;;5072884;28;20873;-84
2022/05/28 14:26:01;;;;;;;22.70;21.03;;;;;;;;;;5058459;28;21034;-85
2022/05/28 14:28:31;;;;;;;23.00;21.57;;;;;;;;;;5052692;28;21018;-85
2022/05/28 14:30:59;;;;;;;21.83;20.53;;;;;;;;;;5053041;28;20438;-85
2022/05/28 14:33:28;;;;;;;21.80;20.50;;;;;;;;;;5052784;28;20421;-85
2022/05/28 14:36:04;;;;;;;21.20;19.90;;;;;;;;;;5054067;28;20967;-85
2022/05/28 14:38:31;;;;;;;23.03;21.50;;;;;;;;;;5072904;28;20405;-84
2022/05/28 14:41:00;;;;;;;23.40;21.60;;;;;;;;;;5075608;28;20500;-83
2022/05/28 14:43:30;;;;;;;23.57;21.73;;;;;;;;;;5076364;28;20470;-85
2022/05/28 14:46:09;;;;;;;23.63;22.03;;;;;;;;;;5076582;28;20441;-85